sensor_id;sensor_type;location;lat;lon;timestamp;temperature;humidity
21563;DHT22;10942;47.894;11.424;2024-03-08T00:01:35;0.80;99.90
21563;DHT22;10942;47.894;11.424;2024-03-08T00:04:01;0.80;99.90
21563;DHT22;10942;47.894;11.424;2024-03-08T00:06:27;0.70;99.90
21563;DHT22;10942;47.894;11.424;2024-03-08T00:08:53;0.70;99.90
21563;DHT22;10942;47.894;11.424;2024-03-08T00:11:18;0.80;99.90
21563;DHT22;10942;47.894;11.424;2024-03-08T00:13:44;0.70;99.90
21563;DHT22;10942;47.894;11.424;2024-03-08T00:16:10;0.60;99.90
21563;DHT22;10942;47.894;11.424;2024-03-08T00:18:36;0.60;99.90
21563;DHT22;10942;47.894;11.424;2024-03-08T00:21:02;0.60;99.90
21563;DHT22;10942;47.894;11.424;2024-03-08T00:23:27;0.70;99.90
21563;DHT22;10942;47.894;11.424;2024-03-08T00:25:53;0.70;99.90
21563;DHT22;10942;47.894;11.424;2024-03-08T00:28:21;0.70;99.90
21563;DHT22;10942;47.894;11.424;2024-03-08T00:30:47;0.70;99.90
21563;DHT22;10942;47.894;11.424;2024-03-08T00:33:12;0.70;99.90
21563;DHT22;10942;47.894;11.424;2024-03-08T00:35:38;0.60;99.90
21563;DHT22;10942;47.894;11.424;2024-03-08T00:38:04;0.60;99.90
21563;DHT22;10942;47.894;11.424;2024-03-08T00:40:29;0.60;99.90
21563;DHT22;10942;47.894;11.424;2024-03-08T00:42:55;0.70;99.90
21563;DHT22;10942;47.894;11.424;2024-03-08T00:45:21;0.70;99.90
21563;DHT22;10942;47.894;11.424;2024-03-08T00:47:48;0.70;99.90
21563;DHT22;10942;47.894;11.424;2024-03-08T00:50:14;0.70;99.90
21563;DHT22;10942;47.894;11.424;2024-03-08T00:52:40;0.80;99.90
21563;DHT22;10942;47.894;11.424;2024-03-08T00:55:06;0.70;99.90
21563;DHT22;10942;47.894;11.424;2024-03-08T00:57:33;0.70;99.90
21563;DHT22;10942;47.894;11.424;2024-03-08T00:59:59;0.70;99.90
21563;DHT22;10942;47.894;11.424;2024-03-08T01:02:24;0.80;99.90
21563;DHT22;10942;47.894;11.424;2024-03-08T01:04:50;0.70;99.90
21563;DHT22;10942;47.894;11.424;2024-03-08T01:07:16;0.70;99.90
21563;DHT22;10942;47.894;11.424;2024-03-08T01:09:41;0.70;99.90
21563;DHT22;10942;47.894;11.424;2024-03-08T01:12:07;0.70;99.90
21563;DHT22;10942;47.894;11.424;2024-03-08T01:14:33;0.70;99.90
21563;DHT22;10942;47.894;11.424;2024-03-08T01:16:59;0.70;99.90
21563;DHT22;10942;47.894;11.424;2024-03-08T01:19:25;0.70;99.90
21563;DHT22;10942;47.894;11.424;2024-03-08T01:21:50;0.70;99.90
21563;DHT22;10942;47.894;11.424;2024-03-08T01:24:16;0.80;99.90
21563;DHT22;10942;47.894;11.424;2024-03-08T01:26:42;0.80;99.90
21563;DHT22;10942;47.894;11.424;2024-03-08T01:29:08;0.80;99.90
21563;DHT22;10942;47.894;11.424;2024-03-08T01:31:34;0.70;99.90
21563;DHT22;10942;47.894;11.424;2024-03-08T01:33:59;0.80;99.90
21563;DHT22;10942;47.894;11.424;2024-03-08T01:36:25;0.80;99.90
21563;DHT22;10942;47.894;11.424;2024-03-08T01:38:52;0.70;99.90
21563;DHT22;10942;47.894;11.424;2024-03-08T01:41:18;0.80;99.90
21563;DHT22;10942;47.894;11.424;2024-03-08T01:43:44;0.80;99.90
21563;DHT22;10942;47.894;11.424;2024-03-08T01:46:13;0.80;99.90
21563;DHT22;10942;47.894;11.424;2024-03-08T01:48:42;0.80;99.90
21563;DHT22;10942;47.894;11.424;2024-03-08T01:51:08;0.70;99.90
21563;DHT22;10942;47.894;11.424;2024-03-08T01:53:34;0.70;99.90
21563;DHT22;10942;47.894;11.424;2024-03-08T01:56:01;0.80;99.90
21563;DHT22;10942;47.894;11.424;2024-03-08T01:58:29;0.90;99.90
21563;DHT22;10942;47.894;11.424;2024-03-08T02:00:56;0.90;99.90
21563;DHT22;10942;47.894;11.424;2024-03-08T02:03:22;0.90;99.90
21563;DHT22;10942;47.894;11.424;2024-03-08T02:05:48;0.80;99.90
21563;DHT22;10942;47.894;11.424;2024-03-08T02:08:14;0.80;99.90
21563;DHT22;10942;47.894;11.424;2024-03-08T02:10:41;0.80;99.90
21563;DHT22;10942;47.894;11.424;2024-03-08T02:13:10;0.70;99.90
21563;DHT22;10942;47.894;11.424;2024-03-08T02:15:56;0.70;99.90
21563;DHT22;10942;47.894;11.424;2024-03-08T02:18:24;0.70;99.90
21563;DHT22;10942;47.894;11.424;2024-03-08T02:20:54;0.60;99.90
21563;DHT22;10942;47.894;11.424;2024-03-08T02:23:21;0.60;99.90
21563;DHT22;10942;47.894;11.424;2024-03-08T02:25:47;0.60;99.90
21563;DHT22;10942;47.894;11.424;2024-03-08T02:28:14;0.70;99.90
21563;DHT22;10942;47.894;11.424;2024-03-08T02:30:40;0.60;99.90
21563;DHT22;10942;47.894;11.424;2024-03-08T02:33:06;0.60;99.90
21563;DHT22;10942;47.894;11.424;2024-03-08T02:35:32;0.30;99.90
21563;DHT22;10942;47.894;11.424;2024-03-08T02:37:59;0.60;99.90
21563;DHT22;10942;47.894;11.424;2024-03-08T02:40:25;0.70;99.90
21563;DHT22;10942;47.894;11.424;2024-03-08T02:42:50;0.70;99.90
21563;DHT22;10942;47.894;11.424;2024-03-08T02:45:16;0.60;99.90
21563;DHT22;10942;47.894;11.424;2024-03-08T02:47:41;0.70;99.90
21563;DHT22;10942;47.894;11.424;2024-03-08T02:50:07;0.60;99.90
21563;DHT22;10942;47.894;11.424;2024-03-08T02:52:34;0.60;99.90
21563;DHT22;10942;47.894;11.424;2024-03-08T02:55:01;0.60;99.90
21563;DHT22;10942;47.894;11.424;2024-03-08T02:57:27;0.50;99.90
21563;DHT22;10942;47.894;11.424;2024-03-08T02:59:54;0.60;99.90
21563;DHT22;10942;47.894;11.424;2024-03-08T03:02:19;0.60;99.90
21563;DHT22;10942;47.894;11.424;2024-03-08T03:04:45;0.60;99.90
21563;DHT22;10942;47.894;11.424;2024-03-08T03:07:11;0.50;99.90
21563;DHT22;10942;47.894;11.424;2024-03-08T03:09:37;0.50;99.90
21563;DHT22;10942;47.894;11.424;2024-03-08T03:12:02;0.40;99.90
21563;DHT22;10942;47.894;11.424;2024-03-08T03:14:28;0.50;99.90
21563;DHT22;10942;47.894;11.424;2024-03-08T03:16:54;0.40;99.90
21563;DHT22;10942;47.894;11.424;2024-03-08T03:19:22;0.40;99.90
21563;DHT22;10942;47.894;11.424;2024-03-08T03:21:49;0.40;99.90
21563;DHT22;10942;47.894;11.424;2024-03-08T03:24:14;0.40;99.90
21563;DHT22;10942;47.894;11.424;2024-03-08T03:26:42;0.30;99.90
21563;DHT22;10942;47.894;11.424;2024-03-08T03:29:09;0.30;99.90
21563;DHT22;10942;47.894;11.424;2024-03-08T03:31:36;0.30;99.90
21563;DHT22;10942;47.894;11.424;2024-03-08T03:34:02;0.20;99.90
21563;DHT22;10942;47.894;11.424;2024-03-08T03:36:32;0.20;99.90
21563;DHT22;10942;47.894;11.424;2024-03-08T03:38:58;0.30;99.90
21563;DHT22;10942;47.894;11.424;2024-03-08T03:41:36;0.30;99.90
21563;DHT22;10942;47.894;11.424;2024-03-08T03:44:02;0.30;99.90
21563;DHT22;10942;47.894;11.424;2024-03-08T03:46:27;0.20;99.90
21563;DHT22;10942;47.894;11.424;2024-03-08T03:48:56;0.30;99.90
21563;DHT22;10942;47.894;11.424;2024-03-08T03:51:22;0.30;99.90
21563;DHT22;10942;47.894;11.424;2024-03-08T03:53:47;0.20;99.90
21563;DHT22;10942;47.894;11.424;2024-03-08T03:56:14;0.20;99.90
21563;DHT22;10942;47.894;11.424;2024-03-08T03:58:39;0.20;99.90
21563;DHT22;10942;47.894;11.424;2024-03-08T04:01:05;0.30;99.90
21563;DHT22;10942;47.894;11.424;2024-03-08T04:03:31;0.30;99.90
21563;DHT22;10942;47.894;11.424;2024-03-08T04:05:57;0.30;99.90
21563;DHT22;10942;47.894;11.424;2024-03-08T04:08:22;0.30;99.90
21563;DHT22;10942;47.894;11.424;2024-03-08T04:10:51;0.30;99.90
21563;DHT22;10942;47.894;11.424;2024-03-08T04:13:17;0.30;99.90
21563;DHT22;10942;47.894;11.424;2024-03-08T04:15:43;0.20;99.90
21563;DHT22;10942;47.894;11.424;2024-03-08T04:18:13;0.20;99.90
21563;DHT22;10942;47.894;11.424;2024-03-08T04:20:39;0.30;99.90
21563;DHT22;10942;47.894;11.424;2024-03-08T04:23:06;0.20;99.90
21563;DHT22;10942;47.894;11.424;2024-03-08T04:25:32;-1.40;99.90
21563;DHT22;10942;47.894;11.424;2024-03-08T04:27:57;0.20;99.90
21563;DHT22;10942;47.894;11.424;2024-03-08T04:30:23;0.20;99.90
21563;DHT22;10942;47.894;11.424;2024-03-08T04:32:49;0.10;99.90
21563;DHT22;10942;47.894;11.424;2024-03-08T04:35:15;0.20;99.90
21563;DHT22;10942;47.894;11.424;2024-03-08T04:37:41;0.30;99.90
21563;DHT22;10942;47.894;11.424;2024-03-08T04:40:07;0.30;99.90
21563;DHT22;10942;47.894;11.424;2024-03-08T04:42:33;0.30;99.90
21563;DHT22;10942;47.894;11.424;2024-03-08T04:45:01;0.30;99.90
21563;DHT22;10942;47.894;11.424;2024-03-08T04:47:26;0.30;99.90
21563;DHT22;10942;47.894;11.424;2024-03-08T04:49:52;0.30;99.90
21563;DHT22;10942;47.894;11.424;2024-03-08T04:52:18;0.30;99.90
21563;DHT22;10942;47.894;11.424;2024-03-08T04:54:44;0.30;99.90
21563;DHT22;10942;47.894;11.424;2024-03-08T04:57:12;0.20;99.90
21563;DHT22;10942;47.894;11.424;2024-03-08T04:59:38;0.30;99.90
21563;DHT22;10942;47.894;11.424;2024-03-08T05:02:04;0.30;99.90
21563;DHT22;10942;47.894;11.424;2024-03-08T05:04:29;1.60;99.90
21563;DHT22;10942;47.894;11.424;2024-03-08T05:06:55;0.30;99.90
21563;DHT22;10942;47.894;11.424;2024-03-08T05:09:21;0.20;99.90
21563;DHT22;10942;47.894;11.424;2024-03-08T05:11:47;0.20;99.90
21563;DHT22;10942;47.894;11.424;2024-03-08T05:14:14;0.30;99.90
21563;DHT22;10942;47.894;11.424;2024-03-08T05:16:43;0.30;99.90
21563;DHT22;10942;47.894;11.424;2024-03-08T05:19:17;0.20;99.90
21563;DHT22;10942;47.894;11.424;2024-03-08T05:21:44;0.20;99.90
21563;DHT22;10942;47.894;11.424;2024-03-08T05:24:09;0.20;99.90
21563;DHT22;10942;47.894;11.424;2024-03-08T05:26:36;0.20;99.90
21563;DHT22;10942;47.894;11.424;2024-03-08T05:29:03;0.20;99.90
21563;DHT22;10942;47.894;11.424;2024-03-08T05:31:29;0.20;99.90
21563;DHT22;10942;47.894;11.424;2024-03-08T05:33:57;0.10;99.90
21563;DHT22;10942;47.894;11.424;2024-03-08T05:36:22;0.10;99.90
21563;DHT22;10942;47.894;11.424;2024-03-08T05:38:48;0.10;99.90
21563;DHT22;10942;47.894;11.424;2024-03-08T05:41:16;0.10;99.90
21563;DHT22;10942;47.894;11.424;2024-03-08T05:43:43;0.10;99.90
21563;DHT22;10942;47.894;11.424;2024-03-08T05:46:09;0.00;99.90
21563;DHT22;10942;47.894;11.424;2024-03-08T05:48:37;0.10;99.90
21563;DHT22;10942;47.894;11.424;2024-03-08T05:51:03;0.00;99.90
21563;DHT22;10942;47.894;11.424;2024-03-08T05:53:29;0.20;99.90
21563;DHT22;10942;47.894;11.424;2024-03-08T05:55:58;0.10;99.90
21563;DHT22;10942;47.894;11.424;2024-03-08T05:58:24;0.20;99.90
21563;DHT22;10942;47.894;11.424;2024-03-08T06:00:50;0.20;99.90
21563;DHT22;10942;47.894;11.424;2024-03-08T06:03:15;0.20;99.90
21563;DHT22;10942;47.894;11.424;2024-03-08T06:05:41;0.30;99.90
21563;DHT22;10942;47.894;11.424;2024-03-08T06:08:07;0.20;99.90
21563;DHT22;10942;47.894;11.424;2024-03-08T06:10:33;0.20;99.90
21563;DHT22;10942;47.894;11.424;2024-03-08T06:12:59;0.30;99.90
21563;DHT22;10942;47.894;11.424;2024-03-08T06:15:25;0.30;99.90
21563;DHT22;10942;47.894;11.424;2024-03-08T06:17:51;0.30;99.90
21563;DHT22;10942;47.894;11.424;2024-03-08T06:20:19;0.20;99.90
21563;DHT22;10942;47.894;11.424;2024-03-08T06:22:45;0.20;99.90
21563;DHT22;10942;47.894;11.424;2024-03-08T06:25:11;0.20;99.90
21563;DHT22;10942;47.894;11.424;2024-03-08T06:27:40;0.20;99.90
21563;DHT22;10942;47.894;11.424;2024-03-08T06:30:09;0.30;99.90
21563;DHT22;10942;47.894;11.424;2024-03-08T06:32:38;0.30;99.90
21563;DHT22;10942;47.894;11.424;2024-03-08T06:35:07;0.30;99.90
21563;DHT22;10942;47.894;11.424;2024-03-08T06:37:33;0.20;99.90
21563;DHT22;10942;47.894;11.424;2024-03-08T06:39:59;0.20;99.90
21563;DHT22;10942;47.894;11.424;2024-03-08T06:42:27;0.20;99.90
21563;DHT22;10942;47.894;11.424;2024-03-08T06:44:53;0.20;99.90
21563;DHT22;10942;47.894;11.424;2024-03-08T06:47:21;0.10;99.90
21563;DHT22;10942;47.894;11.424;2024-03-08T06:49:46;0.20;99.90
21563;DHT22;10942;47.894;11.424;2024-03-08T06:52:12;0.20;99.90
21563;DHT22;10942;47.894;11.424;2024-03-08T06:54:38;0.20;99.90
21563;DHT22;10942;47.894;11.424;2024-03-08T06:57:04;0.10;99.90
21563;DHT22;10942;47.894;11.424;2024-03-08T06:59:31;0.20;99.90
21563;DHT22;10942;47.894;11.424;2024-03-08T07:01:57;0.10;99.90
21563;DHT22;10942;47.894;11.424;2024-03-08T07:04:25;0.30;99.90
21563;DHT22;10942;47.894;11.424;2024-03-08T07:06:54;0.40;99.90
21563;DHT22;10942;47.894;11.424;2024-03-08T07:09:20;0.40;99.90
21563;DHT22;10942;47.894;11.424;2024-03-08T07:11:45;0.40;99.90
21563;DHT22;10942;47.894;11.424;2024-03-08T07:14:12;0.40;99.90
21563;DHT22;10942;47.894;11.424;2024-03-08T07:16:40;0.30;99.90
21563;DHT22;10942;47.894;11.424;2024-03-08T07:19:07;0.40;99.90
21563;DHT22;10942;47.894;11.424;2024-03-08T07:21:32;0.50;99.90
21563;DHT22;10942;47.894;11.424;2024-03-08T07:23:58;0.50;99.90
21563;DHT22;10942;47.894;11.424;2024-03-08T07:26:27;0.50;99.90
21563;DHT22;10942;47.894;11.424;2024-03-08T07:28:53;0.70;99.90
21563;DHT22;10942;47.894;11.424;2024-03-08T07:31:22;0.80;99.90
21563;DHT22;10942;47.894;11.424;2024-03-08T07:33:50;0.80;99.90
21563;DHT22;10942;47.894;11.424;2024-03-08T07:36:16;1.00;99.90
21563;DHT22;10942;47.894;11.424;2024-03-08T07:38:42;1.00;99.90
21563;DHT22;10942;47.894;11.424;2024-03-08T07:41:08;1.10;99.90
21563;DHT22;10942;47.894;11.424;2024-03-08T07:43:34;1.30;99.90
21563;DHT22;10942;47.894;11.424;2024-03-08T07:45:59;1.20;99.90
21563;DHT22;10942;47.894;11.424;2024-03-08T07:48:25;1.20;99.90
21563;DHT22;10942;47.894;11.424;2024-03-08T07:50:51;1.40;99.90
21563;DHT22;10942;47.894;11.424;2024-03-08T07:53:17;1.40;99.90
21563;DHT22;10942;47.894;11.424;2024-03-08T07:55:42;1.50;99.90
21563;DHT22;10942;47.894;11.424;2024-03-08T07:58:10;1.80;99.90
21563;DHT22;10942;47.894;11.424;2024-03-08T08:00:36;1.90;99.90
21563;DHT22;10942;47.894;11.424;2024-03-08T08:03:03;1.90;99.90
21563;DHT22;10942;47.894;11.424;2024-03-08T08:05:29;1.70;99.90
21563;DHT22;10942;47.894;11.424;2024-03-08T08:07:54;1.70;99.90
21563;DHT22;10942;47.894;11.424;2024-03-08T08:10:21;1.70;99.90
21563;DHT22;10942;47.894;11.424;2024-03-08T08:12:50;1.90;99.90
21563;DHT22;10942;47.894;11.424;2024-03-08T08:15:17;2.00;99.90
21563;DHT22;10942;47.894;11.424;2024-03-08T08:17:44;2.10;99.90
21563;DHT22;10942;47.894;11.424;2024-03-08T08:20:10;2.20;99.90
21563;DHT22;10942;47.894;11.424;2024-03-08T08:22:40;2.30;99.90
21563;DHT22;10942;47.894;11.424;2024-03-08T08:25:07;2.30;99.90
21563;DHT22;10942;47.894;11.424;2024-03-08T08:27:32;2.40;99.90
21563;DHT22;10942;47.894;11.424;2024-03-08T08:29:58;2.50;99.90
21563;DHT22;10942;47.894;11.424;2024-03-08T08:32:24;2.40;99.90
21563;DHT22;10942;47.894;11.424;2024-03-08T08:34:50;2.60;99.90
21563;DHT22;10942;47.894;11.424;2024-03-08T08:37:16;2.80;99.90
21563;DHT22;10942;47.894;11.424;2024-03-08T08:39:42;3.20;99.90
21563;DHT22;10942;47.894;11.424;2024-03-08T08:42:08;4.20;99.90
21563;DHT22;10942;47.894;11.424;2024-03-08T08:44:36;4.20;99.90
21563;DHT22;10942;47.894;11.424;2024-03-08T08:47:01;4.30;99.90
21563;DHT22;10942;47.894;11.424;2024-03-08T08:49:29;4.40;99.90
21563;DHT22;10942;47.894;11.424;2024-03-08T08:51:56;4.50;99.90
21563;DHT22;10942;47.894;11.424;2024-03-08T08:56:51;5.40;99.90
21563;DHT22;10942;47.894;11.424;2024-03-08T08:59:16;6.20;99.90
21563;DHT22;10942;47.894;11.424;2024-03-08T09:09:07;6.90;99.90
21563;DHT22;10942;47.894;11.424;2024-03-08T09:11:37;7.60;99.90
21563;DHT22;10942;47.894;11.424;2024-03-08T09:21:25;9.00;99.90
21563;DHT22;10942;47.894;11.424;2024-03-08T09:23:53;9.10;99.90
21563;DHT22;10942;47.894;11.424;2024-03-08T09:26:19;8.80;99.90
21563;DHT22;10942;47.894;11.424;2024-03-08T09:28:45;9.00;99.90
21563;DHT22;10942;47.894;11.424;2024-03-08T09:31:11;9.20;99.90
21563;DHT22;10942;47.894;11.424;2024-03-08T09:33:37;9.20;99.90
21563;DHT22;10942;47.894;11.424;2024-03-08T09:36:06;9.50;99.90
21563;DHT22;10942;47.894;11.424;2024-03-08T09:38:33;9.90;99.90
21563;DHT22;10942;47.894;11.424;2024-03-08T09:41:00;9.60;99.90
21563;DHT22;10942;47.894;11.424;2024-03-08T09:43:28;9.80;99.90
21563;DHT22;10942;47.894;11.424;2024-03-08T09:45:55;9.60;99.90
21563;DHT22;10942;47.894;11.424;2024-03-08T09:48:22;9.60;99.90
21563;DHT22;10942;47.894;11.424;2024-03-08T09:50:48;9.50;99.90
21563;DHT22;10942;47.894;11.424;2024-03-08T09:53:14;9.30;99.90
21563;DHT22;10942;47.894;11.424;2024-03-08T09:55:40;9.70;99.90
21563;DHT22;10942;47.894;11.424;2024-03-08T10:30:23;11.80;99.90
21563;DHT22;10942;47.894;11.424;2024-03-08T10:32:49;11.50;99.90
21563;DHT22;10942;47.894;11.424;2024-03-08T10:35:15;11.70;99.90
21563;DHT22;10942;47.894;11.424;2024-03-08T10:37:47;11.30;99.90
21563;DHT22;10942;47.894;11.424;2024-03-08T10:40:17;11.50;99.90
21563;DHT22;10942;47.894;11.424;2024-03-08T10:45:30;10.20;99.90
21563;DHT22;10942;47.894;11.424;2024-03-08T10:50:35;9.30;99.90
21563;DHT22;10942;47.894;11.424;2024-03-08T10:53:03;9.50;99.90
21563;DHT22;10942;47.894;11.424;2024-03-08T10:55:33;8.70;99.90
21563;DHT22;10942;47.894;11.424;2024-03-08T10:57:59;8.10;99.90
21563;DHT22;10942;47.894;11.424;2024-03-08T11:00:26;7.40;99.90
21563;DHT22;10942;47.894;11.424;2024-03-08T11:02:53;7.40;99.90
21563;DHT22;10942;47.894;11.424;2024-03-08T11:05:51;7.20;99.90
21563;DHT22;10942;47.894;11.424;2024-03-08T11:08:18;7.10;99.90
21563;DHT22;10942;47.894;11.424;2024-03-08T11:10:51;7.20;99.90
21563;DHT22;10942;47.894;11.424;2024-03-08T11:13:41;7.00;99.90
21563;DHT22;10942;47.894;11.424;2024-03-08T11:16:36;7.10;99.90
21563;DHT22;10942;47.894;11.424;2024-03-08T11:33:47;7.40;99.90
21563;DHT22;10942;47.894;11.424;2024-03-08T11:36:23;7.60;99.90
21563;DHT22;10942;47.894;11.424;2024-03-08T11:38:50;7.60;99.90
21563;DHT22;10942;47.894;11.424;2024-03-08T11:41:24;7.50;99.90
21563;DHT22;10942;47.894;11.424;2024-03-08T11:44:04;7.60;99.90
21563;DHT22;10942;47.894;11.424;2024-03-08T11:46:31;7.60;99.90
21563;DHT22;10942;47.894;11.424;2024-03-08T11:48:56;7.70;99.90
21563;DHT22;10942;47.894;11.424;2024-03-08T11:51:22;7.70;99.90
21563;DHT22;10942;47.894;11.424;2024-03-08T11:53:49;7.80;99.90
21563;DHT22;10942;47.894;11.424;2024-03-08T11:56:16;7.90;99.90
21563;DHT22;10942;47.894;11.424;2024-03-08T11:58:42;8.00;99.90
21563;DHT22;10942;47.894;11.424;2024-03-08T12:01:17;7.90;99.90
21563;DHT22;10942;47.894;11.424;2024-03-08T12:03:43;8.00;99.90
21563;DHT22;10942;47.894;11.424;2024-03-08T12:06:10;8.10;99.90
21563;DHT22;10942;47.894;11.424;2024-03-08T12:11:05;8.00;99.90
21563;DHT22;10942;47.894;11.424;2024-03-08T12:13:33;8.10;99.90
21563;DHT22;10942;47.894;11.424;2024-03-08T12:16:03;8.10;99.90
21563;DHT22;10942;47.894;11.424;2024-03-08T12:26:18;8.20;99.90
21563;DHT22;10942;47.894;11.424;2024-03-08T12:28:48;8.20;99.90
21563;DHT22;10942;47.894;11.424;2024-03-08T12:31:16;8.30;99.90
21563;DHT22;10942;47.894;11.424;2024-03-08T12:33:55;8.30;99.90
21563;DHT22;10942;47.894;11.424;2024-03-08T12:36:25;8.30;99.90
21563;DHT22;10942;47.894;11.424;2024-03-08T12:38:52;8.40;99.90
21563;DHT22;10942;47.894;11.424;2024-03-08T12:41:20;8.30;99.90
21563;DHT22;10942;47.894;11.424;2024-03-08T12:43:46;8.50;99.90
21563;DHT22;10942;47.894;11.424;2024-03-08T12:56:10;9.00;99.90
21563;DHT22;10942;47.894;11.424;2024-03-08T12:58:36;8.90;99.90
21563;DHT22;10942;47.894;11.424;2024-03-08T13:01:05;8.90;99.90
21563;DHT22;10942;47.894;11.424;2024-03-08T13:03:33;9.00;99.90
21563;DHT22;10942;47.894;11.424;2024-03-08T13:06:02;8.90;99.90
21563;DHT22;10942;47.894;11.424;2024-03-08T13:08:28;8.80;99.90
21563;DHT22;10942;47.894;11.424;2024-03-08T13:10:55;8.90;99.90
21563;DHT22;10942;47.894;11.424;2024-03-08T13:13:21;8.90;99.90
21563;DHT22;10942;47.894;11.424;2024-03-08T13:15:46;8.90;99.90
21563;DHT22;10942;47.894;11.424;2024-03-08T13:18:12;8.90;99.90
21563;DHT22;10942;47.894;11.424;2024-03-08T13:20:38;9.00;99.90
21563;DHT22;10942;47.894;11.424;2024-03-08T13:23:04;8.90;99.90
21563;DHT22;10942;47.894;11.424;2024-03-08T13:25:33;8.90;99.90
21563;DHT22;10942;47.894;11.424;2024-03-08T13:27:59;9.00;99.90
21563;DHT22;10942;47.894;11.424;2024-03-08T13:30:26;9.00;99.90
21563;DHT22;10942;47.894;11.424;2024-03-08T13:32:55;9.00;99.90
21563;DHT22;10942;47.894;11.424;2024-03-08T13:35:21;9.00;99.90
21563;DHT22;10942;47.894;11.424;2024-03-08T13:37:51;8.90;99.90
21563;DHT22;10942;47.894;11.424;2024-03-08T13:40:17;9.00;99.90
21563;DHT22;10942;47.894;11.424;2024-03-08T13:42:46;9.00;99.90
21563;DHT22;10942;47.894;11.424;2024-03-08T13:45:12;9.10;99.90
21563;DHT22;10942;47.894;11.424;2024-03-08T13:47:39;9.20;99.90
21563;DHT22;10942;47.894;11.424;2024-03-08T13:50:10;9.10;99.90
21563;DHT22;10942;47.894;11.424;2024-03-08T13:52:38;9.10;99.90
21563;DHT22;10942;47.894;11.424;2024-03-08T13:55:05;9.10;99.90
21563;DHT22;10942;47.894;11.424;2024-03-08T13:57:31;9.20;99.90
21563;DHT22;10942;47.894;11.424;2024-03-08T13:59:58;9.10;99.90
21563;DHT22;10942;47.894;11.424;2024-03-08T14:02:24;9.10;99.90
21563;DHT22;10942;47.894;11.424;2024-03-08T14:04:56;9.10;99.90
21563;DHT22;10942;47.894;11.424;2024-03-08T14:07:23;9.10;99.90
21563;DHT22;10942;47.894;11.424;2024-03-08T14:09:51;9.00;99.90
21563;DHT22;10942;47.894;11.424;2024-03-08T14:12:19;9.10;99.90
21563;DHT22;10942;47.894;11.424;2024-03-08T14:14:44;9.10;99.90
21563;DHT22;10942;47.894;11.424;2024-03-08T14:17:10;9.10;99.90
21563;DHT22;10942;47.894;11.424;2024-03-08T14:19:39;9.10;99.90
21563;DHT22;10942;47.894;11.424;2024-03-08T14:22:05;9.10;99.90
21563;DHT22;10942;47.894;11.424;2024-03-08T14:24:31;9.00;99.90
21563;DHT22;10942;47.894;11.424;2024-03-08T14:26:59;9.10;99.90
21563;DHT22;10942;47.894;11.424;2024-03-08T14:29:26;9.10;99.90
21563;DHT22;10942;47.894;11.424;2024-03-08T14:31:55;9.10;99.90
21563;DHT22;10942;47.894;11.424;2024-03-08T14:34:25;9.10;99.90
21563;DHT22;10942;47.894;11.424;2024-03-08T14:36:53;9.10;99.90
21563;DHT22;10942;47.894;11.424;2024-03-08T14:39:19;9.10;99.90
21563;DHT22;10942;47.894;11.424;2024-03-08T14:41:48;9.20;99.90
21563;DHT22;10942;47.894;11.424;2024-03-08T14:44:13;9.20;99.90
21563;DHT22;10942;47.894;11.424;2024-03-08T14:46:40;9.10;99.90
21563;DHT22;10942;47.894;11.424;2024-03-08T14:49:07;9.10;99.90
21563;DHT22;10942;47.894;11.424;2024-03-08T14:51:33;9.10;99.90
21563;DHT22;10942;47.894;11.424;2024-03-08T14:54:00;9.10;99.90
21563;DHT22;10942;47.894;11.424;2024-03-08T14:56:26;9.10;99.90
21563;DHT22;10942;47.894;11.424;2024-03-08T14:58:52;9.00;99.90
21563;DHT22;10942;47.894;11.424;2024-03-08T15:01:19;9.00;99.90
21563;DHT22;10942;47.894;11.424;2024-03-08T15:03:50;9.00;99.90
21563;DHT22;10942;47.894;11.424;2024-03-08T15:06:16;9.00;99.90
21563;DHT22;10942;47.894;11.424;2024-03-08T15:08:45;8.90;99.90
21563;DHT22;10942;47.894;11.424;2024-03-08T15:11:11;8.90;99.90
21563;DHT22;10942;47.894;11.424;2024-03-08T15:13:37;8.90;99.90
21563;DHT22;10942;47.894;11.424;2024-03-08T15:16:08;8.80;99.90
21563;DHT22;10942;47.894;11.424;2024-03-08T15:18:34;8.70;99.90
21563;DHT22;10942;47.894;11.424;2024-03-08T15:23:33;8.80;99.90
21563;DHT22;10942;47.894;11.424;2024-03-08T15:25:59;8.80;99.90
21563;DHT22;10942;47.894;11.424;2024-03-08T15:28:24;8.80;99.90
21563;DHT22;10942;47.894;11.424;2024-03-08T15:31:02;8.90;99.90
21563;DHT22;10942;47.894;11.424;2024-03-08T15:33:32;8.80;99.90
21563;DHT22;10942;47.894;11.424;2024-03-08T15:35:58;8.80;99.90
21563;DHT22;10942;47.894;11.424;2024-03-08T15:38:26;8.80;99.90
21563;DHT22;10942;47.894;11.424;2024-03-08T15:40:55;8.80;99.90
21563;DHT22;10942;47.894;11.424;2024-03-08T15:43:24;8.80;99.90
21563;DHT22;10942;47.894;11.424;2024-03-08T15:45:51;8.80;99.90
21563;DHT22;10942;47.894;11.424;2024-03-08T15:48:17;8.70;99.90
21563;DHT22;10942;47.894;11.424;2024-03-08T15:50:42;8.70;99.90
21563;DHT22;10942;47.894;11.424;2024-03-08T15:55:38;8.50;99.90
21563;DHT22;10942;47.894;11.424;2024-03-08T15:58:06;8.60;99.90
21563;DHT22;10942;47.894;11.424;2024-03-08T16:00:32;8.40;99.90
21563;DHT22;10942;47.894;11.424;2024-03-08T16:03:14;8.40;99.90
21563;DHT22;10942;47.894;11.424;2024-03-08T16:05:41;8.40;99.90
21563;DHT22;10942;47.894;11.424;2024-03-08T16:59:59;7.50;99.90
21563;DHT22;10942;47.894;11.424;2024-03-08T17:02:24;7.40;99.90
21563;DHT22;10942;47.894;11.424;2024-03-08T17:04:50;7.40;99.90
21563;DHT22;10942;47.894;11.424;2024-03-08T17:07:16;7.30;99.90
21563;DHT22;10942;47.894;11.424;2024-03-08T17:09:42;7.20;99.90
21563;DHT22;10942;47.894;11.424;2024-03-08T17:12:08;7.10;99.90
21563;DHT22;10942;47.894;11.424;2024-03-08T17:14:36;7.10;99.90
21563;DHT22;10942;47.894;11.424;2024-03-08T17:17:06;7.00;99.90
21563;DHT22;10942;47.894;11.424;2024-03-08T17:19:33;6.90;99.90
21563;DHT22;10942;47.894;11.424;2024-03-08T17:24:27;6.80;99.90
21563;DHT22;10942;47.894;11.424;2024-03-08T18:23:20;5.80;99.90
21563;DHT22;10942;47.894;11.424;2024-03-08T18:35:40;5.80;99.90
21563;DHT22;10942;47.894;11.424;2024-03-08T18:38:07;5.50;99.90
21563;DHT22;10942;47.894;11.424;2024-03-08T18:40:33;5.50;99.90
21563;DHT22;10942;47.894;11.424;2024-03-08T18:42:59;5.50;99.90
21563;DHT22;10942;47.894;11.424;2024-03-08T18:45:26;5.40;99.90
21563;DHT22;10942;47.894;11.424;2024-03-08T18:47:54;5.40;99.90
21563;DHT22;10942;47.894;11.424;2024-03-08T18:50:23;5.30;99.90
21563;DHT22;10942;47.894;11.424;2024-03-08T18:52:50;5.30;99.90
21563;DHT22;10942;47.894;11.424;2024-03-08T18:55:16;5.30;99.90
21563;DHT22;10942;47.894;11.424;2024-03-08T18:57:47;5.20;99.90
21563;DHT22;10942;47.894;11.424;2024-03-08T19:00:15;5.20;99.90
21563;DHT22;10942;47.894;11.424;2024-03-08T19:03:07;5.20;99.90
21563;DHT22;10942;47.894;11.424;2024-03-08T19:05:34;5.10;99.90